SAS1879 ENZV-EKCH
Flight info
| Callsign | SAS1879 |
|---|---|
| Flight time | 0h 52m |
| Altitude | 31000 |
| Route | BIVKI1F BIVKI DCT TESPI TESPI4C |
| Aircraft | A319/M-VGDW/C |
Departure
| Time | 2026-04-21 17:42 |
|---|---|
| Airport | Stavanger Airport, Sola (ENZV) |
Arrival
| Time | 2026-04-21 18:34 |
|---|---|
| Airport | Copenhagen Kastrup Airport (EKCH) |
| Time | Latitude | Longitude | Altitude | Speed | Heading |
|---|---|---|---|---|---|
| 2026-04-21 17:01 | 58.88278 | 5.63094 | 26 ft | 0 kts | 254° |
| 2026-04-21 17:32 | 58.88279 | 5.63100 | 27 ft | 2 kts | 254° |
| 2026-04-21 17:33 | 58.88284 | 5.63133 | 24 ft | 3 kts | 254° |
| 2026-04-21 17:33 | 58.88289 | 5.63171 | 31 ft | 3 kts | 254° |
| 2026-04-21 17:33 | 58.88295 | 5.63206 | 27 ft | 3 kts | 246° |
| 2026-04-21 17:33 | 58.88305 | 5.63236 | 29 ft | 3 kts | 210° |
| 2026-04-21 17:34 | 58.88322 | 5.63247 | 29 ft | 3 kts | 176° |
| 2026-04-21 17:34 | 58.88338 | 5.63242 | 29 ft | 1 kts | 164° |
| 2026-04-21 17:34 | 58.88340 | 5.63241 | 29 ft | 0 kts | 164° |
| 2026-04-21 17:37 | 58.88333 | 5.63246 | 29 ft | 3 kts | 163° |
| 2026-04-21 17:37 | 58.88288 | 5.63293 | 30 ft | 11 kts | 128° |
| 2026-04-21 17:37 | 58.88247 | 5.63421 | 31 ft | 14 kts | 161° |
| 2026-04-21 17:38 | 58.88130 | 5.63435 | 30 ft | 19 kts | 178° |
| 2026-04-21 17:38 | 58.87988 | 5.63408 | 31 ft | 22 kts | 204° |
| 2026-04-21 17:38 | 58.87875 | 5.63314 | 31 ft | 14 kts | 201° |
| 2026-04-21 17:38 | 58.87773 | 5.63291 | 31 ft | 16 kts | 178° |
| 2026-04-21 17:39 | 58.87647 | 5.63295 | 31 ft | 21 kts | 179° |
| 2026-04-21 17:39 | 58.87474 | 5.63299 | 31 ft | 28 kts | 179° |
| 2026-04-21 17:39 | 58.87288 | 5.63306 | 31 ft | 23 kts | 179° |
| 2026-04-21 17:39 | 58.87118 | 5.63310 | 32 ft | 26 kts | 180° |
| 2026-04-21 17:40 | 58.87002 | 5.63373 | 32 ft | 19 kts | 148° |
| 2026-04-21 17:40 | 58.86950 | 5.63556 | 34 ft | 10 kts | 95° |
| 2026-04-21 17:40 | 58.86950 | 5.63699 | 35 ft | 12 kts | 86° |
| 2026-04-21 17:40 | 58.86980 | 5.63804 | 36 ft | 10 kts | 13° |
| 2026-04-21 17:41 | 58.87007 | 5.63803 | 36 ft | 0 kts | 359° |
| 2026-04-21 17:41 | 58.87017 | 5.63802 | 36 ft | 6 kts | 359° |
| 2026-04-21 17:41 | 58.87286 | 5.63792 | 34 ft | 73 kts | 359° |
| 2026-04-21 17:41 | 58.88006 | 5.63772 | 33 ft | 132 kts | 359° |
| 2026-04-21 17:42 | 58.89002 | 5.63775 | 467 ft | 141 kts | 358° |
| 2026-04-21 17:42 | 58.89948 | 5.63871 | 1258 ft | 130 kts | 2° |
| 2026-04-21 17:42 | 58.90800 | 5.63936 | 2042 ft | 112 kts | 358° |
| 2026-04-21 17:42 | 58.91540 | 5.63935 | 2468 ft | 117 kts | 4° |
| 2026-04-21 17:43 | 58.92459 | 5.63947 | 2848 ft | 138 kts | 356° |
| 2026-04-21 17:43 | 58.93501 | 5.63842 | 3324 ft | 162 kts | 357° |
| 2026-04-21 17:43 | 58.94738 | 5.63745 | 3792 ft | 192 kts | 358° |
| 2026-04-21 17:43 | 58.96158 | 5.63836 | 4346 ft | 219 kts | 14° |
| 2026-04-21 17:44 | 58.97512 | 5.65470 | 4981 ft | 249 kts | 50° |
| 2026-04-21 17:44 | 58.98133 | 5.68690 | 5826 ft | 267 kts | 88° |
| 2026-04-21 17:44 | 58.97658 | 5.72191 | 6771 ft | 276 kts | 122° |
| 2026-04-21 17:44 | 58.96245 | 5.74705 | 7678 ft | 281 kts | 150° |
| 2026-04-21 17:45 | 58.94454 | 5.76220 | 8655 ft | 283 kts | 161° |
| 2026-04-21 17:45 | 58.92559 | 5.77381 | 9600 ft | 287 kts | 163° |
| 2026-04-21 17:45 | 58.90627 | 5.78535 | 10485 ft | 293 kts | 162° |
| 2026-04-21 17:45 | 58.88664 | 5.79828 | 11114 ft | 307 kts | 159° |
| 2026-04-21 17:46 | 58.86617 | 5.81326 | 11549 ft | 325 kts | 157° |
| 2026-04-21 17:46 | 58.84454 | 5.83036 | 11892 ft | 344 kts | 156° |
| 2026-04-21 17:46 | 58.82225 | 5.84884 | 12577 ft | 351 kts | 155° |
| 2026-04-21 17:46 | 58.80018 | 5.86760 | 13402 ft | 353 kts | 155° |
| 2026-04-21 17:47 | 58.77764 | 5.88690 | 14202 ft | 356 kts | 154° |
| 2026-04-21 17:47 | 58.75458 | 5.90660 | 14930 ft | 358 kts | 154° |
| 2026-04-21 17:47 | 58.73207 | 5.92570 | 15647 ft | 360 kts | 155° |
| 2026-04-21 17:47 | 58.70897 | 5.94519 | 16397 ft | 362 kts | 155° |
| 2026-04-21 17:48 | 58.69337 | 5.95830 | 16864 ft | 364 kts | 156° |
| 2026-04-21 17:48 | 58.66247 | 5.98419 | 17812 ft | 367 kts | 156° |
| 2026-04-21 17:48 | 58.63892 | 6.00389 | 18501 ft | 370 kts | 156° |
| 2026-04-21 17:48 | 58.61528 | 6.02365 | 19208 ft | 371 kts | 156° |
| 2026-04-21 17:49 | 58.59171 | 6.04331 | 19958 ft | 370 kts | 156° |
| 2026-04-21 17:49 | 58.56795 | 6.06309 | 20564 ft | 373 kts | 157° |
| 2026-04-21 17:49 | 58.54409 | 6.08292 | 21180 ft | 376 kts | 157° |
| 2026-04-21 17:49 | 58.52001 | 6.10291 | 21806 ft | 378 kts | 157° |
| 2026-04-21 17:50 | 58.49579 | 6.12300 | 22396 ft | 381 kts | 157° |
| 2026-04-21 17:50 | 58.47137 | 6.14318 | 22958 ft | 384 kts | 158° |
| 2026-04-21 17:50 | 58.44679 | 6.16345 | 23500 ft | 387 kts | 158° |
| 2026-04-21 17:50 | 58.42199 | 6.18385 | 24043 ft | 389 kts | 158° |
| 2026-04-21 17:51 | 58.39708 | 6.20429 | 24504 ft | 391 kts | 158° |
| 2026-04-21 17:51 | 58.37199 | 6.22503 | 24922 ft | 395 kts | 156° |
| 2026-04-21 17:51 | 58.34805 | 6.25100 | 25333 ft | 399 kts | 147° |
| 2026-04-21 17:51 | 58.32645 | 6.28476 | 25757 ft | 405 kts | 137° |
| 2026-04-21 17:52 | 58.30663 | 6.32309 | 26216 ft | 407 kts | 136° |
| 2026-04-21 17:52 | 58.28674 | 6.36151 | 26677 ft | 409 kts | 136° |
| 2026-04-21 17:52 | 58.26665 | 6.40005 | 27120 ft | 411 kts | 136° |
| 2026-04-21 17:52 | 58.24645 | 6.43869 | 27533 ft | 414 kts | 136° |
| 2026-04-21 17:53 | 58.22606 | 6.47761 | 27959 ft | 417 kts | 137° |
| 2026-04-21 17:53 | 58.20556 | 6.51664 | 28361 ft | 419 kts | 137° |
| 2026-04-21 17:53 | 58.18486 | 6.55594 | 28762 ft | 422 kts | 137° |
| 2026-04-21 17:53 | 58.16406 | 6.59544 | 29153 ft | 425 kts | 137° |
| 2026-04-21 17:54 | 58.14315 | 6.63509 | 29534 ft | 427 kts | 137° |
| 2026-04-21 17:54 | 58.12204 | 6.67502 | 29902 ft | 430 kts | 137° |
| 2026-04-21 17:54 | 58.10085 | 6.71508 | 30276 ft | 432 kts | 137° |
| 2026-04-21 17:54 | 58.07948 | 6.75540 | 30615 ft | 435 kts | 137° |
| 2026-04-21 17:55 | 58.05794 | 6.79597 | 30884 ft | 438 kts | 136° |
| 2026-04-21 17:55 | 58.03629 | 6.83666 | 31149 ft | 441 kts | 136° |
| 2026-04-21 17:55 | 58.01449 | 6.87760 | 31379 ft | 442 kts | 136° |
| 2026-04-21 17:55 | 57.99294 | 6.91806 | 31412 ft | 436 kts | 136° |
| 2026-04-21 17:56 | 57.94990 | 6.99849 | 31412 ft | 436 kts | 136° |
| 2026-04-21 17:56 | 57.90672 | 7.07885 | 31412 ft | 436 kts | 136° |
| 2026-04-21 17:57 | 57.86386 | 7.15849 | 31409 ft | 436 kts | 136° |
| 2026-04-21 17:57 | 57.82063 | 7.23859 | 31414 ft | 436 kts | 136° |
| 2026-04-21 17:58 | 57.77735 | 7.31828 | 31405 ft | 436 kts | 136° |
| 2026-04-21 17:58 | 57.73395 | 7.39779 | 31398 ft | 437 kts | 136° |
| 2026-04-21 17:59 | 57.69053 | 7.47737 | 31407 ft | 437 kts | 135° |
| 2026-04-21 17:59 | 57.64702 | 7.55671 | 31408 ft | 436 kts | 136° |
| 2026-04-21 18:00 | 57.60356 | 7.63560 | 31409 ft | 436 kts | 136° |
| 2026-04-21 18:00 | 57.56002 | 7.71438 | 31412 ft | 436 kts | 136° |
| 2026-04-21 18:01 | 57.51643 | 7.79297 | 31407 ft | 436 kts | 136° |
| 2026-04-21 18:01 | 57.48023 | 7.85805 | 31400 ft | 436 kts | 135° |
| 2026-04-21 18:02 | 57.43651 | 7.93641 | 31390 ft | 437 kts | 135° |
| 2026-04-21 18:02 | 57.39264 | 8.01467 | 31400 ft | 438 kts | 135° |
| 2026-04-21 18:03 | 57.34876 | 8.09288 | 31398 ft | 437 kts | 135° |
| 2026-04-21 18:03 | 57.30489 | 8.17077 | 31398 ft | 437 kts | 135° |
| 2026-04-21 18:04 | 57.26091 | 8.24827 | 31399 ft | 437 kts | 135° |
| 2026-04-21 18:04 | 57.21696 | 8.32576 | 31401 ft | 437 kts | 135° |
| 2026-04-21 18:05 | 57.17301 | 8.40302 | 31406 ft | 437 kts | 135° |
| 2026-04-21 18:05 | 57.12881 | 8.48022 | 31396 ft | 438 kts | 135° |
| 2026-04-21 18:06 | 57.08465 | 8.55710 | 31406 ft | 438 kts | 135° |
| 2026-04-21 18:06 | 57.04042 | 8.63398 | 31408 ft | 437 kts | 135° |
| 2026-04-21 18:07 | 56.99621 | 8.71060 | 31413 ft | 437 kts | 135° |
| 2026-04-21 18:07 | 56.95202 | 8.78689 | 31405 ft | 436 kts | 135° |
| 2026-04-21 18:08 | 56.90778 | 8.86299 | 31409 ft | 436 kts | 135° |
| 2026-04-21 18:08 | 56.86346 | 8.93887 | 31402 ft | 437 kts | 135° |
| 2026-04-21 18:09 | 56.81907 | 9.01455 | 31381 ft | 437 kts | 135° |
| 2026-04-21 18:09 | 56.77459 | 9.09021 | 31387 ft | 437 kts | 135° |
| 2026-04-21 18:10 | 56.73017 | 9.16554 | 30466 ft | 438 kts | 135° |
| 2026-04-21 18:10 | 56.70682 | 9.20504 | 28013 ft | 474 kts | 134° |
| 2026-04-21 18:10 | 56.68291 | 9.24564 | 27567 ft | 460 kts | 135° |
| 2026-04-21 18:11 | 56.65968 | 9.28488 | 26619 ft | 456 kts | 135° |
| 2026-04-21 18:11 | 56.63663 | 9.32359 | 26013 ft | 445 kts | 135° |
| 2026-04-21 18:11 | 56.61411 | 9.36130 | 25726 ft | 436 kts | 134° |
| 2026-04-21 18:11 | 56.59301 | 9.40017 | 25527 ft | 428 kts | 126° |
| 2026-04-21 18:12 | 56.57553 | 9.44447 | 25357 ft | 438 kts | 123° |
| 2026-04-21 18:12 | 56.55793 | 9.49004 | 25395 ft | 445 kts | 123° |
| 2026-04-21 18:12 | 56.54005 | 9.53647 | 25394 ft | 452 kts | 122° |
| 2026-04-21 18:12 | 56.52197 | 9.58359 | 25386 ft | 458 kts | 123° |
| 2026-04-21 18:13 | 56.50369 | 9.63087 | 25388 ft | 459 kts | 123° |
| 2026-04-21 18:13 | 56.48526 | 9.67813 | 25388 ft | 460 kts | 123° |
| 2026-04-21 18:13 | 56.46670 | 9.72542 | 25389 ft | 461 kts | 123° |
| 2026-04-21 18:13 | 56.44846 | 9.77181 | 25389 ft | 448 kts | 123° |
| 2026-04-21 18:14 | 56.41224 | 9.86409 | 25387 ft | 452 kts | 122° |
| 2026-04-21 18:14 | 56.39496 | 9.91119 | 25381 ft | 444 kts | 115° |
| 2026-04-21 18:14 | 56.38379 | 9.96168 | 25384 ft | 430 kts | 105° |
| 2026-04-21 18:15 | 56.37459 | 10.01309 | 25386 ft | 430 kts | 105° |
| 2026-04-21 18:15 | 56.36538 | 10.06460 | 25386 ft | 433 kts | 105° |
| 2026-04-21 18:15 | 56.35609 | 10.11650 | 25386 ft | 435 kts | 106° |
| 2026-04-21 18:15 | 56.34690 | 10.16771 | 25230 ft | 436 kts | 106° |
| 2026-04-21 18:16 | 56.33742 | 10.22055 | 24985 ft | 442 kts | 106° |
| 2026-04-21 18:16 | 56.32800 | 10.27300 | 24743 ft | 446 kts | 106° |
| 2026-04-21 18:16 | 56.31830 | 10.32689 | 24494 ft | 448 kts | 106° |
| 2026-04-21 18:16 | 56.30863 | 10.38033 | 24272 ft | 449 kts | 106° |
| 2026-04-21 18:17 | 56.29899 | 10.43314 | 24012 ft | 449 kts | 106° |
| 2026-04-21 18:17 | 56.28921 | 10.48654 | 23640 ft | 450 kts | 106° |
| 2026-04-21 18:17 | 56.27939 | 10.54009 | 23360 ft | 450 kts | 106° |
| 2026-04-21 18:17 | 56.26959 | 10.59349 | 23084 ft | 449 kts | 106° |
| 2026-04-21 18:18 | 56.25980 | 10.64664 | 22808 ft | 447 kts | 106° |
| 2026-04-21 18:18 | 56.24998 | 10.69966 | 22535 ft | 446 kts | 106° |
| 2026-04-21 18:18 | 56.24016 | 10.75262 | 22264 ft | 445 kts | 106° |
| 2026-04-21 18:18 | 56.23038 | 10.80527 | 21995 ft | 444 kts | 106° |
| 2026-04-21 18:19 | 56.22061 | 10.85778 | 21733 ft | 442 kts | 106° |
| 2026-04-21 18:19 | 56.21082 | 10.91024 | 21473 ft | 441 kts | 106° |
| 2026-04-21 18:19 | 56.20105 | 10.96243 | 21210 ft | 440 kts | 107° |
| 2026-04-21 18:19 | 56.19133 | 11.01438 | 20951 ft | 439 kts | 107° |
| 2026-04-21 18:20 | 56.18160 | 11.06629 | 20696 ft | 438 kts | 107° |
| 2026-04-21 18:20 | 56.17187 | 11.11795 | 20442 ft | 437 kts | 107° |
| 2026-04-21 18:20 | 56.16214 | 11.16940 | 20136 ft | 436 kts | 107° |
| 2026-04-21 18:20 | 56.15236 | 11.22085 | 19526 ft | 432 kts | 107° |
| 2026-04-21 18:21 | 56.14271 | 11.27152 | 18659 ft | 427 kts | 107° |
| 2026-04-21 18:21 | 56.13317 | 11.32205 | 17261 ft | 429 kts | 107° |
| 2026-04-21 18:21 | 56.12375 | 11.37238 | 16232 ft | 423 kts | 107° |
| 2026-04-21 18:21 | 56.11450 | 11.42175 | 15407 ft | 414 kts | 107° |
| 2026-04-21 18:22 | 56.10540 | 11.47031 | 14546 ft | 409 kts | 107° |
| 2026-04-21 18:22 | 56.09643 | 11.51798 | 13942 ft | 396 kts | 107° |
| 2026-04-21 18:22 | 56.08721 | 11.56485 | 13300 ft | 401 kts | 108° |
| 2026-04-21 18:22 | 56.07775 | 11.61181 | 12731 ft | 401 kts | 108° |
| 2026-04-21 18:23 | 56.06829 | 11.65858 | 12252 ft | 399 kts | 108° |
| 2026-04-21 18:23 | 56.05900 | 11.70512 | 11774 ft | 396 kts | 108° |
| 2026-04-21 18:23 | 56.04988 | 11.75147 | 11288 ft | 394 kts | 107° |
| 2026-04-21 18:23 | 56.04086 | 11.79772 | 10797 ft | 392 kts | 107° |
| 2026-04-21 18:24 | 56.03192 | 11.84357 | 10309 ft | 390 kts | 107° |
| 2026-04-21 18:24 | 56.02302 | 11.88916 | 10091 ft | 388 kts | 107° |
| 2026-04-21 18:24 | 56.01419 | 11.93419 | 10131 ft | 389 kts | 107° |
| 2026-04-21 18:24 | 56.00510 | 11.98040 | 10234 ft | 390 kts | 108° |
| 2026-04-21 18:25 | 55.99608 | 12.02604 | 10430 ft | 391 kts | 108° |
| 2026-04-21 18:25 | 55.98711 | 12.07120 | 10687 ft | 389 kts | 108° |
| 2026-04-21 18:25 | 55.97810 | 12.11639 | 10069 ft | 384 kts | 108° |
| 2026-04-21 18:25 | 55.96914 | 12.16123 | 9537 ft | 384 kts | 108° |
| 2026-04-21 18:26 | 55.96016 | 12.20612 | 8952 ft | 382 kts | 108° |
| 2026-04-21 18:26 | 55.95125 | 12.25063 | 8546 ft | 381 kts | 108° |
| 2026-04-21 18:26 | 55.94233 | 12.29503 | 8276 ft | 380 kts | 108° |
| 2026-04-21 18:26 | 55.93341 | 12.33934 | 8095 ft | 379 kts | 108° |
| 2026-04-21 18:27 | 55.92454 | 12.38329 | 7764 ft | 374 kts | 108° |
| 2026-04-21 18:27 | 55.91571 | 12.42700 | 7308 ft | 375 kts | 108° |
| 2026-04-21 18:27 | 55.90690 | 12.47065 | 6862 ft | 373 kts | 108° |
| 2026-04-21 18:27 | 55.89815 | 12.51385 | 6417 ft | 364 kts | 108° |
| 2026-04-21 18:28 | 55.88970 | 12.55525 | 5947 ft | 348 kts | 108° |
| 2026-04-21 18:28 | 55.88126 | 12.59481 | 5490 ft | 336 kts | 112° |
| 2026-04-21 18:28 | 55.86777 | 12.62795 | 5035 ft | 327 kts | 133° |
| 2026-04-21 18:28 | 55.85158 | 12.65476 | 4556 ft | 309 kts | 135° |
| 2026-04-21 18:29 | 55.83608 | 12.67994 | 4089 ft | 295 kts | 135° |
| 2026-04-21 18:29 | 55.82136 | 12.70429 | 3625 ft | 283 kts | 133° |
| 2026-04-21 18:29 | 55.80997 | 12.73178 | 3163 ft | 271 kts | 112° |
| 2026-04-21 18:29 | 55.80659 | 12.76327 | 2999 ft | 257 kts | 88° |
| 2026-04-21 18:30 | 55.80603 | 12.79513 | 2996 ft | 260 kts | 100° |
| 2026-04-21 18:30 | 55.79818 | 12.82410 | 3007 ft | 264 kts | 128° |
| 2026-04-21 18:30 | 55.78549 | 12.84685 | 2998 ft | 253 kts | 141° |
| 2026-04-21 18:30 | 55.76983 | 12.85876 | 2887 ft | 242 kts | 173° |
| 2026-04-21 18:31 | 55.75344 | 12.85683 | 2728 ft | 233 kts | 197° |
| 2026-04-21 18:31 | 55.73927 | 12.84455 | 2587 ft | 222 kts | 219° |
| 2026-04-21 18:31 | 55.72782 | 12.82702 | 2458 ft | 213 kts | 224° |
| 2026-04-21 18:31 | 55.71719 | 12.81026 | 2318 ft | 197 kts | 225° |
| 2026-04-21 18:32 | 55.70703 | 12.79389 | 2152 ft | 209 kts | 225° |
| 2026-04-21 18:32 | 55.69629 | 12.77608 | 1942 ft | 224 kts | 225° |
| 2026-04-21 18:32 | 55.68497 | 12.75734 | 1520 ft | 219 kts | 224° |
| 2026-04-21 18:32 | 55.67300 | 12.74195 | 1212 ft | 208 kts | 216° |
| 2026-04-21 18:33 | 55.66225 | 12.72631 | 998 ft | 189 kts | 228° |
| 2026-04-21 18:33 | 55.65315 | 12.71174 | 848 ft | 166 kts | 225° |
| 2026-04-21 18:33 | 55.64510 | 12.69831 | 603 ft | 155 kts | 224° |
| 2026-04-21 18:33 | 55.63729 | 12.68602 | 373 ft | 145 kts | 221° |
| 2026-04-21 18:34 | 55.62997 | 12.67457 | 168 ft | 137 kts | 222° |
| 2026-04-21 18:34 | 55.62282 | 12.66353 | 35 ft | 135 kts | 221° |
| 2026-04-21 18:34 | 55.61650 | 12.65375 | 23 ft | 102 kts | 222° |
| 2026-04-21 18:34 | 55.61295 | 12.64767 | 26 ft | 44 kts | 242° |
| 2026-04-21 18:35 | 55.61217 | 12.64411 | 26 ft | 50 kts | 251° |
| 2026-04-21 18:35 | 55.61259 | 12.64107 | 24 ft | 18 kts | 1° |
| 2026-04-21 18:35 | 55.61353 | 12.64196 | 25 ft | 15 kts | 35° |
| 2026-04-21 18:35 | 55.61450 | 12.64305 | 25 ft | 18 kts | 32° |
| 2026-04-21 18:36 | 55.61566 | 12.64439 | 24 ft | 22 kts | 34° |
| 2026-04-21 18:36 | 55.61679 | 12.64561 | 24 ft | 13 kts | 22° |
| 2026-04-21 18:36 | 55.61741 | 12.64560 | 27 ft | 14 kts | 349° |
| 2026-04-21 18:36 | 55.61885 | 12.64514 | 24 ft | 29 kts | 350° |
| 2026-04-21 18:37 | 55.62067 | 12.64453 | 24 ft | 15 kts | 349° |
| 2026-04-21 18:37 | 55.62130 | 12.64432 | 23 ft | 8 kts | 349° |
| 2026-04-21 18:37 | 55.62194 | 12.64411 | 21 ft | 11 kts | 349° |
| 2026-04-21 18:37 | 55.62243 | 12.64396 | 22 ft | 10 kts | 351° |
| 2026-04-21 18:38 | 55.62322 | 12.64416 | 23 ft | 13 kts | 15° |
| 2026-04-21 18:38 | 55.62411 | 12.64458 | 24 ft | 14 kts | 15° |
| 2026-04-21 18:38 | 55.62496 | 12.64464 | 25 ft | 11 kts | 323° |
| 2026-04-21 18:38 | 55.62515 | 12.64430 | 24 ft | 1 kts | 307° |
| 2026-04-21 18:39 | 55.62544 | 12.64356 | 24 ft | 12 kts | 304° |
| 2026-04-21 18:39 | 55.62598 | 12.64264 | 24 ft | 10 kts | 355° |
| 2026-04-21 18:39 | 55.62664 | 12.64308 | 24 ft | 9 kts | 22° |
| 2026-04-21 18:39 | 55.62711 | 12.64344 | 26 ft | 4 kts | 26° |
| 2026-04-21 18:40 | 55.62721 | 12.64373 | 24 ft | 1 kts | 78° |
| 2026-04-21 18:40 | 55.62718 | 12.64412 | 24 ft | 5 kts | 99° |
| 2026-04-21 18:40 | 55.62716 | 12.64431 | 26 ft | 2 kts | 101° |
| 2026-04-21 18:40 | 55.62713 | 12.64459 | 24 ft | 2 kts | 102° |
| 2026-04-21 18:41 | 55.62712 | 12.64468 | 24 ft | 0 kts | 101° |